createdAt,value
2022-08-03T00:02:16.891Z,4.30
2022-08-03T00:04:43.697Z,4.70
2022-08-03T00:07:10.230Z,4.60
2022-08-03T00:09:36.783Z,4.10
2022-08-03T00:12:03.541Z,5.00
2022-08-03T00:14:30.293Z,4.40
2022-08-03T00:16:57.619Z,5.00
2022-08-03T00:19:24.176Z,4.60
2022-08-03T00:21:51.027Z,4.40
2022-08-03T00:24:18.157Z,5.20
2022-08-03T00:26:45.015Z,4.90
2022-08-03T00:29:11.584Z,4.40
2022-08-03T00:31:52.108Z,4.70
2022-08-03T00:34:32.626Z,5.90
2022-08-03T00:37:06.131Z,5.30
2022-08-03T00:39:32.729Z,5.30
2022-08-03T00:42:03.755Z,5.20
2022-08-03T00:44:31.222Z,5.40
2022-08-03T00:46:57.735Z,5.20
2022-08-03T00:49:24.494Z,5.30
2022-08-03T00:51:51.447Z,4.50
2022-08-03T00:54:21.380Z,4.60
2022-08-03T00:56:59.771Z,4.40
2022-08-03T00:59:27.377Z,4.30
2022-08-03T01:01:54.080Z,4.50
2022-08-03T01:04:20.709Z,4.40
2022-08-03T01:07:10.726Z,4.60
2022-08-03T01:25:30.691Z,5.20
2022-08-03T01:29:18.634Z,5.10
2022-08-03T01:33:23.474Z,5.60
2022-08-03T01:37:15.107Z,5.90
2022-08-03T01:41:14.678Z,5.90
2022-08-03T01:45:10.148Z,5.80
2022-08-03T01:48:33.984Z,5.10
2022-08-03T01:55:06.403Z,4.80
2022-08-03T01:58:20.489Z,5.10
2022-08-03T02:02:28.416Z,5.30
2022-08-03T02:09:49.010Z,5.60
2022-08-03T02:13:38.970Z,5.40
2022-08-03T02:24:20.498Z,6.50
2022-08-03T02:28:08.319Z,6.50
2022-08-03T02:31:38.475Z,5.80
2022-08-03T02:39:02.204Z,5.00
2022-08-03T02:42:29.387Z,4.80
2022-08-03T02:45:46.599Z,5.20
2022-08-03T02:57:09.521Z,5.60
2022-08-03T03:08:38.832Z,6.40
2022-08-03T03:15:53.944Z,6.10
2022-08-03T03:22:37.783Z,6.30
2022-08-03T03:29:06.193Z,5.00
2022-08-03T03:36:25.462Z,4.90
2022-08-03T03:44:18.411Z,5.70
2022-08-03T03:51:51.725Z,6.20
2022-08-03T03:55:59.640Z,6.60
2022-08-03T04:07:12.269Z,5.60
2022-08-03T04:19:12.863Z,5.50
2022-08-03T04:29:34.139Z,5.50
2022-08-03T04:33:12.055Z,6.00
2022-08-03T04:36:41.313Z,5.50
2022-08-03T04:40:10.250Z,6.40
2022-08-03T04:43:16.946Z,5.90
2022-08-03T04:47:00.165Z,5.90
2022-08-03T04:54:25.501Z,6.50
2022-08-03T05:01:50.941Z,4.70
2022-08-03T05:05:16.212Z,5.30
2022-08-03T05:08:33.321Z,5.10
2022-08-03T05:11:58.422Z,5.20
2022-08-03T05:15:10.153Z,5.30
2022-08-03T05:18:48.245Z,5.90
2022-08-03T05:22:39.888Z,5.60
2022-08-03T05:29:47.974Z,5.40
2022-08-03T05:33:42.306Z,6.00
2022-08-03T05:37:34.352Z,5.40
2022-08-03T05:41:21.408Z,5.80
2022-08-03T05:44:52.274Z,6.00
2022-08-03T05:48:09.179Z,5.80
2022-08-03T05:51:18.411Z,7.00
2022-08-03T05:54:56.764Z,5.40
2022-08-03T05:58:13.462Z,5.40
2022-08-03T06:11:32.940Z,4.70
2022-08-03T06:14:50.870Z,4.50
2022-08-03T06:18:19.152Z,4.70
2022-08-03T06:21:20.695Z,4.30
2022-08-03T06:24:33.257Z,4.50
2022-08-03T06:27:50.788Z,5.40
2022-08-03T06:31:06.616Z,5.00
2022-08-03T06:45:45.818Z,4.80
2022-08-03T06:49:00.191Z,5.30
2022-08-03T06:55:48.965Z,3.30
2022-08-03T07:00:08.078Z,3.50
2022-08-03T07:02:47.623Z,3.40
2022-08-03T07:10:07.297Z,2.40
2022-08-03T07:12:59.696Z,3.20
2022-08-03T07:16:16.273Z,2.90
2022-08-03T07:19:39.618Z,2.90
2022-08-03T07:26:09.393Z,2.50
2022-08-03T07:29:29.551Z,2.60
2022-08-03T07:39:59.670Z,2.10
2022-08-03T07:43:29.151Z,2.10
2022-08-03T07:46:43.169Z,2.20
2022-08-03T07:50:00.864Z,2.30
2022-08-03T07:53:26.343Z,2.30
2022-08-03T08:04:12.980Z,1.60
2022-08-03T08:06:43.548Z,1.70
2022-08-03T08:09:11.929Z,1.40
2022-08-03T08:11:40.214Z,1.90
2022-08-03T08:14:09.121Z,2.00
2022-08-03T08:16:39.645Z,2.00
2022-08-03T08:19:07.551Z,2.00
2022-08-03T08:21:53.105Z,2.20
2022-08-03T08:24:26.158Z,2.50
2022-08-03T08:26:54.282Z,2.50
2022-08-03T08:29:23.446Z,2.20
2022-08-03T08:31:51.936Z,2.30
2022-08-03T08:34:22.957Z,2.70
2022-08-03T08:36:51.356Z,2.30
2022-08-03T08:39:19.364Z,2.30
2022-08-03T08:41:53.278Z,2.20
2022-08-03T08:44:24.279Z,2.70
2022-08-03T08:46:54.111Z,2.70
2022-08-03T08:49:27.306Z,2.70
2022-08-03T08:52:00.662Z,2.70
2022-08-03T08:54:32.628Z,3.00
2022-08-03T08:57:40.801Z,3.00
2022-08-03T09:00:14.702Z,2.80
2022-08-03T09:02:44.830Z,3.10
2022-08-03T09:05:18.571Z,3.20
2022-08-03T09:08:35.131Z,2.90
2022-08-03T09:11:03.665Z,3.00
2022-08-03T09:13:34.099Z,2.70
2022-08-03T09:16:17.342Z,3.60
2022-08-03T09:19:08.055Z,3.00
2022-08-03T09:21:36.351Z,2.60
2022-08-03T09:24:16.440Z,2.70
2022-08-03T09:26:54.695Z,2.70
2022-08-03T09:29:22.972Z,2.60
2022-08-03T09:32:01.787Z,3.00
2022-08-03T09:34:38.740Z,3.10
2022-08-03T09:37:16.325Z,2.50
2022-08-03T09:39:46.311Z,1.80
2022-08-03T09:42:18.274Z,1.90
2022-08-03T09:44:48.853Z,1.60
2022-08-03T09:47:29.907Z,1.60
2022-08-03T09:50:02.301Z,2.00
2022-08-03T09:52:49.906Z,1.70
2022-08-03T09:56:34.260Z,1.80
2022-08-03T09:58:11.619Z,1.60
2022-08-03T10:00:59.510Z,1.50
2022-08-03T10:03:29.960Z,1.60
2022-08-03T10:05:59.962Z,1.50
2022-08-03T10:08:28.515Z,1.30
2022-08-03T10:10:58.763Z,1.30
2022-08-03T10:13:27.979Z,1.20
2022-08-03T10:16:23.842Z,1.90
2022-08-03T10:19:14.424Z,1.20
2022-08-03T10:21:51.361Z,1.80
2022-08-03T10:24:26.280Z,1.60
2022-08-03T10:29:59.540Z,1.30
2022-08-03T10:32:50.742Z,1.40
2022-08-03T10:36:18.443Z,1.30
2022-08-03T10:38:55.296Z,1.30
2022-08-03T10:41:50.158Z,1.00
2022-08-03T10:45:43.519Z,1.10
2022-08-03T10:48:30.311Z,1.10
2022-08-03T10:50:58.830Z,1.20
2022-08-03T10:53:47.738Z,1.40
2022-08-03T10:57:13.522Z,1.30
2022-08-03T10:59:58.439Z,1.10
2022-08-03T11:03:04.218Z,1.40
2022-08-03T11:05:51.348Z,1.10
2022-08-03T11:08:44.026Z,1.10
2022-08-03T11:12:30.623Z,1.00
2022-08-03T11:16:19.826Z,1.20
2022-08-03T11:18:55.388Z,1.30
2022-08-03T11:22:11.634Z,1.10
2022-08-03T11:27:34.599Z,1.20
2022-08-03T11:30:08.362Z,1.10
2022-08-03T11:32:58.936Z,1.00
2022-08-03T11:35:35.518Z,0.90
2022-08-03T11:38:29.383Z,1.00
2022-08-03T11:41:33.824Z,1.40
2022-08-03T11:44:42.272Z,0.80
2022-08-03T11:47:18.165Z,0.90
2022-08-03T11:49:50.547Z,0.90
2022-08-03T11:52:27.331Z,1.00
2022-08-03T11:54:57.593Z,1.00
2022-08-03T11:59:16.665Z,1.10
2022-08-03T12:00:30.579Z,1.40
2022-08-03T12:03:08.863Z,0.90
2022-08-03T12:05:51.361Z,1.00
2022-08-03T12:08:36.213Z,1.00
2022-08-03T12:11:09.509Z,1.20
2022-08-03T12:14:26.937Z,0.90
2022-08-03T12:16:54.222Z,1.30
2022-08-03T12:19:22.362Z,1.00
2022-08-03T12:21:56.781Z,0.90
2022-08-03T12:24:29.565Z,1.10
2022-08-03T12:26:59.968Z,1.00
2022-08-03T12:29:36.473Z,1.20
2022-08-03T12:32:06.928Z,1.10
2022-08-03T12:34:51.860Z,0.90
2022-08-03T12:37:23.428Z,1.30
2022-08-03T12:40:10.503Z,1.00
2022-08-03T12:42:52.892Z,1.20
2022-08-03T12:45:36.940Z,0.90
2022-08-03T12:49:06.008Z,1.10
2022-08-03T12:52:07.712Z,1.00
2022-08-03T12:55:03.573Z,1.10
2022-08-03T13:06:15.366Z,1.00
2022-08-03T13:08:47.991Z,1.00
2022-08-03T13:11:29.522Z,1.30
2022-08-03T13:14:39.025Z,1.10
2022-08-03T13:17:08.230Z,1.70
2022-08-03T13:19:55.893Z,1.20
2022-08-03T13:22:30.195Z,1.10
2022-08-03T13:25:00.714Z,0.90
2022-08-03T13:28:04.478Z,1.00
2022-08-03T13:30:27.553Z,1.10
2022-08-03T13:33:30.957Z,1.20
2022-08-03T13:36:13.343Z,1.20
2022-08-03T13:38:43.134Z,1.20
2022-08-03T13:41:16.829Z,1.00
2022-08-03T13:44:06.695Z,1.10
2022-08-03T13:46:44.006Z,1.10
2022-08-03T13:50:11.753Z,0.90
2022-08-03T13:52:40.584Z,0.70
2022-08-03T13:58:14.745Z,0.70
2022-08-03T14:00:43.356Z,0.90
2022-08-03T14:03:14.734Z,1.00
2022-08-03T14:05:47.675Z,0.90
2022-08-03T14:08:18.474Z,1.00
2022-08-03T14:11:00.295Z,1.00
2022-08-03T14:22:06.170Z,1.30
2022-08-03T14:25:21.475Z,1.30
2022-08-03T14:27:53.306Z,1.10
2022-08-03T14:30:21.425Z,1.10
2022-08-03T14:33:00.730Z,1.20
2022-08-03T14:36:14.025Z,1.00
2022-08-03T14:46:53.246Z,1.10
2022-08-03T14:53:05.032Z,1.10
2022-08-03T14:55:39.011Z,1.30
2022-08-03T14:58:36.716Z,1.10
2022-08-03T15:02:23.388Z,1.00
2022-08-03T15:09:21.408Z,1.10
2022-08-03T15:12:07.338Z,0.90
2022-08-03T15:14:35.594Z,1.10
2022-08-03T15:17:06.911Z,0.90
2022-08-03T15:20:03.567Z,1.20
2022-08-03T15:22:34.692Z,0.90
2022-08-03T15:26:03.150Z,1.10
2022-08-03T15:28:28.346Z,1.20
2022-08-03T15:31:26.219Z,1.20
2022-08-03T15:34:19.704Z,1.00
2022-08-03T15:37:17.257Z,1.10
2022-08-03T15:40:01.011Z,1.10
2022-08-03T15:42:39.412Z,1.10
2022-08-03T15:45:12.834Z,1.10
2022-08-03T15:48:02.134Z,0.90
2022-08-03T15:51:09.294Z,1.00
2022-08-03T15:54:21.222Z,1.20
2022-08-03T15:56:51.383Z,1.20
2022-08-03T15:59:20.095Z,0.90
2022-08-03T16:02:17.978Z,1.00
2022-08-03T16:04:45.893Z,1.60
2022-08-03T16:07:15.743Z,1.10
2022-08-03T16:09:44.338Z,1.20
2022-08-03T16:12:16.364Z,1.10
2022-08-03T16:14:53.786Z,1.10
2022-08-03T16:17:24.216Z,1.40
2022-08-03T16:19:54.103Z,1.30
2022-08-03T16:22:24.378Z,1.30
2022-08-03T16:25:34.058Z,1.00
2022-08-03T16:28:15.035Z,0.90
2022-08-03T16:30:46.322Z,1.00
2022-08-03T16:33:17.323Z,1.00
2022-08-03T16:35:46.978Z,1.00
2022-08-03T16:38:19.390Z,1.00
2022-08-03T16:40:52.423Z,1.00
2022-08-03T16:43:22.773Z,1.20
2022-08-03T16:45:51.590Z,1.20
2022-08-03T16:48:20.046Z,1.00
2022-08-03T16:50:55.960Z,0.90
2022-08-03T16:53:33.568Z,1.10
2022-08-03T16:56:16.347Z,1.00
2022-08-03T16:58:46.614Z,1.40
2022-08-03T17:01:21.578Z,0.90
2022-08-03T17:04:02.445Z,1.20
2022-08-03T17:06:36.365Z,1.10
2022-08-03T17:09:26.072Z,1.30
2022-08-03T17:11:54.115Z,1.00
2022-08-03T17:14:52.231Z,1.10
2022-08-03T17:17:53.620Z,1.30
2022-08-03T17:20:51.214Z,1.10
2022-08-03T17:24:02.228Z,1.00
2022-08-03T17:28:41.856Z,1.10
2022-08-03T17:30:50.244Z,1.60
2022-08-03T17:34:07.899Z,1.30
2022-08-03T17:37:50.478Z,1.10
2022-08-03T17:40:54.212Z,1.40
2022-08-03T17:44:15.424Z,1.20
2022-08-03T17:47:29.351Z,1.30
2022-08-03T17:50:55.243Z,1.20
2022-08-03T17:54:18.393Z,1.00
2022-08-03T18:00:46.234Z,1.50
2022-08-03T18:07:41.080Z,1.30
2022-08-03T18:10:51.190Z,1.50
2022-08-03T18:14:00.337Z,1.40
2022-08-03T18:20:19.500Z,1.70
2022-08-03T18:23:04.718Z,1.70
2022-08-03T18:25:45.645Z,1.80
2022-08-03T18:28:19.231Z,1.60
2022-08-03T18:30:54.483Z,1.50
2022-08-03T18:34:18.154Z,1.80
2022-08-03T18:36:21.960Z,2.30
2022-08-03T18:39:02.469Z,1.70
2022-08-03T18:41:34.686Z,1.90
2022-08-03T18:44:08.694Z,1.60
2022-08-03T18:46:53.909Z,1.50
2022-08-03T18:49:51.439Z,1.40
2022-08-03T18:52:37.518Z,1.50
2022-08-03T18:55:20.496Z,1.60
2022-08-03T18:57:56.102Z,1.30
2022-08-03T19:00:34.267Z,1.20
2022-08-03T19:03:22.549Z,1.30
2022-08-03T19:06:02.765Z,1.10
2022-08-03T19:08:48.319Z,1.40
2022-08-03T19:11:28.103Z,1.50
2022-08-03T19:13:59.588Z,1.20
2022-08-03T19:16:35.239Z,1.40
2022-08-03T19:19:14.552Z,1.50
2022-08-03T19:21:44.800Z,1.20
2022-08-03T19:24:14.006Z,1.40
2022-08-03T19:26:44.105Z,1.50
2022-08-03T19:29:18.800Z,1.60
2022-08-03T19:31:59.456Z,1.40
2022-08-03T19:34:32.902Z,1.50
2022-08-03T19:37:02.480Z,1.90
2022-08-03T19:39:31.864Z,1.30
2022-08-03T19:42:12.180Z,1.60
2022-08-03T19:47:29.828Z,1.50
2022-08-03T19:50:05.345Z,1.70
2022-08-03T19:52:42.488Z,1.60
2022-08-03T19:55:12.879Z,1.50
2022-08-03T19:57:45.637Z,1.60
2022-08-03T20:00:14.682Z,1.70
2022-08-03T20:02:43.999Z,1.30
2022-08-03T20:05:15.510Z,1.80
2022-08-03T20:07:47.800Z,1.60
2022-08-03T20:10:18.014Z,1.50
2022-08-03T20:12:47.420Z,1.70
2022-08-03T20:15:18.330Z,1.50
2022-08-03T20:18:00.248Z,1.40
2022-08-03T20:20:33.376Z,1.50
2022-08-03T20:23:07.529Z,1.60
2022-08-03T20:25:57.130Z,1.80
2022-08-03T20:28:35.234Z,1.60
2022-08-03T20:31:23.846Z,1.50
2022-08-03T20:34:00.576Z,1.50
2022-08-03T20:36:28.540Z,1.50
2022-08-03T20:38:59.719Z,1.60
2022-08-03T20:41:28.160Z,1.30
2022-08-03T20:44:00.958Z,1.60
2022-08-03T20:46:41.422Z,1.60
2022-08-03T20:49:20.232Z,1.90
2022-08-03T20:51:53.575Z,1.60
2022-08-03T20:54:31.030Z,1.70
2022-08-03T20:57:04.394Z,1.70
2022-08-03T20:59:50.323Z,1.50
2022-08-03T21:02:29.471Z,1.60
2022-08-03T21:05:03.342Z,1.70
2022-08-03T21:08:04.547Z,1.40
2022-08-03T21:10:32.466Z,1.50
2022-08-03T21:13:16.739Z,2.00
2022-08-03T21:16:04.845Z,1.80
2022-08-03T21:18:45.423Z,1.70
2022-08-03T21:21:16.016Z,1.90
2022-08-03T21:23:49.643Z,1.60
2022-08-03T21:26:20.499Z,1.70
2022-08-03T21:28:50.162Z,1.90
2022-08-03T21:31:25.267Z,2.10
2022-08-03T21:34:00.901Z,1.90
2022-08-03T21:36:33.139Z,2.00
2022-08-03T21:39:03.324Z,1.90
2022-08-03T21:41:32.918Z,2.00
2022-08-03T21:44:01.917Z,2.20
2022-08-03T21:46:35.630Z,1.80
2022-08-03T21:50:04.432Z,1.90
2022-08-03T21:51:59.270Z,2.60
2022-08-03T21:54:34.620Z,2.10
2022-08-03T21:57:05.680Z,2.10
2022-08-03T21:59:37.935Z,1.90
2022-08-03T22:02:22.682Z,1.80
2022-08-03T22:04:56.215Z,2.00
2022-08-03T22:07:27.844Z,1.80
2022-08-03T22:09:57.128Z,2.30
2022-08-03T22:12:30.678Z,1.70
2022-08-03T22:15:01.927Z,2.20
2022-08-03T22:17:54.020Z,2.10
2022-08-03T22:20:22.016Z,2.30
2022-08-03T22:22:55.675Z,1.80
2022-08-03T22:25:29.199Z,1.90
2022-08-03T22:28:00.579Z,1.80
2022-08-03T22:30:29.028Z,1.70
2022-08-03T22:32:58.633Z,1.80
2022-08-03T22:35:29.014Z,1.90
2022-08-03T22:37:59.394Z,2.00
2022-08-03T22:40:29.019Z,1.90
2022-08-03T22:42:57.525Z,1.80
2022-08-03T22:45:45.545Z,1.70
2022-08-03T22:48:18.065Z,1.90
2022-08-03T22:50:46.778Z,1.90
2022-08-03T22:53:19.217Z,2.10
2022-08-03T22:55:49.183Z,1.80
2022-08-03T22:58:18.283Z,1.70
2022-08-03T23:00:53.905Z,1.90
2022-08-03T23:03:25.762Z,1.70
2022-08-03T23:06:15.518Z,1.80
2022-08-03T23:08:46.640Z,1.80
2022-08-03T23:11:18.221Z,2.10
2022-08-03T23:13:50.154Z,2.10
2022-08-03T23:16:28.875Z,1.90
2022-08-03T23:19:25.145Z,1.70
2022-08-03T23:22:57.729Z,1.60
2022-08-03T23:26:05.968Z,1.70
2022-08-03T23:28:57.908Z,1.80
2022-08-03T23:31:46.938Z,2.00
2022-08-03T23:34:57.697Z,2.20
2022-08-03T23:38:22.280Z,1.80
2022-08-03T23:40:51.629Z,1.80
2022-08-03T23:44:06.013Z,1.70
2022-08-03T23:46:44.002Z,2.00
2022-08-03T23:49:35.917Z,1.70
2022-08-03T23:53:04.174Z,2.50
2022-08-03T23:56:14.041Z,2.20
2022-08-03T23:59:22.204Z,2.10
